Aérodrome :
LOGIN :

S'inscrire | Disclaimer

   EN    FR    IT 

 










Légende :    VFR   VFR Marginal   IFR   IFR Intensif   IFR Très Intensif
Visi : 
Plafond : 
>= 8 km
>= 3000ft
5 à 8 km
1000 à 3000 ft
1500m à 5 km
500 à 1000 ft
800 à 1500m
200 à 500 ft
< 800m
< 200 ft
Symboles :   Orages  Brouillard  Fortes neiges  Fortes précipitations  Vent > 20 kt
SIGMETs :   Divers  Orages  Givrage  Turbulence  Onde Orograph.  Cendres Volcan.







- Altitude de l'aérodrome : 82 ft
- Code IATA : ALG


DAAG - Alger Houari Boumedienne

DERNIER METAR :
  • 211000Z 04017KT CAVOK 29/17 Q1019

METARs EXPIRÉS :
  • 210930Z 04016KT CAVOK 29/17 Q1019
  • 210900Z 04014KT CAVOK 29/16 Q1019
  • 210830Z 05015KT 9999 FEW020 28/15 Q1019
  • 210800Z 06012KT 9999 FEW020 27/15 Q1019
  • 210730Z 07005KT 030V120 CAVOK 26/17 Q1019

TAF TAF DAAG
Valide du 21 à 06h jusqu'au 22 à 06h UTC


210500Z 2106/2206 VRB02KT CAVOK
PROB30
TEMPO 2106/2108 5000 BR BKN015
BECMG 2108/2111 04012KT
PROB30
TEMPO 2112/2116 04015G25KT
BECMG 2121/2124 VRB02KT
Pas de NOTAMs connus pour ce terrain.



MET'MAP, la Météo Aéronautique d'un coup d'oeil ! - Copyright ORBIFLY Décembre 2007 - Disclaimer

ORBIFLY MET'MAP TEAM :

Programmation & Développement : Alexandra Zaïnal
Conception & Développement : Baudouin d'Aumeries
Co-Programmation & Développement : Marc-Olivier Méhu
Soutien technique & logistique : Manuel Goepfert

Contact : metmap@orbifly.com




SOURCES & CREDITS :

   NOAA